createdAt,value
2023-05-12T00:01:23.577Z,6.75
2023-05-12T00:03:53.641Z,7.03
2023-05-12T00:06:21.323Z,7.18
2023-05-12T00:08:48.293Z,7.18
2023-05-12T00:11:15.319Z,7.53
2023-05-12T00:13:42.326Z,8.25
2023-05-12T00:16:09.436Z,8.20
2023-05-12T00:18:36.427Z,7.60
2023-05-12T00:21:03.465Z,7.65
2023-05-12T00:23:30.775Z,7.93
2023-05-12T00:25:57.819Z,7.18
2023-05-12T00:28:24.775Z,7.40
2023-05-12T00:30:51.842Z,7.25
2023-05-12T00:33:18.881Z,7.15
2023-05-12T00:35:45.866Z,7.20
2023-05-12T00:38:13.453Z,6.88
2023-05-12T00:40:41.129Z,8.02
2023-05-12T00:43:08.727Z,7.00
2023-05-12T00:45:36.069Z,7.38
2023-05-12T00:48:05.137Z,7.40
2023-05-12T00:50:32.508Z,7.85
2023-05-12T00:53:01.207Z,7.15
2023-05-12T00:55:30.890Z,7.30
2023-05-12T00:57:57.820Z,7.40
2023-05-12T01:00:24.830Z,7.53
2023-05-12T01:02:51.947Z,8.18
2023-05-12T01:05:19.073Z,7.70
2023-05-12T01:07:47.386Z,7.55
2023-05-12T01:10:21.904Z,7.60
2023-05-12T01:12:49.144Z,7.78
2023-05-12T01:15:16.966Z,7.75
2023-05-12T01:17:50.273Z,8.32
2023-05-12T01:20:22.195Z,7.30
2023-05-12T01:22:50.250Z,7.15
2023-05-12T01:25:19.542Z,7.70
2023-05-12T01:27:46.969Z,7.65
2023-05-12T01:30:17.899Z,7.30
2023-05-12T01:32:45.285Z,7.93
2023-05-12T01:35:12.273Z,7.35
2023-05-12T01:37:39.295Z,7.65
2023-05-12T01:40:06.862Z,6.63
2023-05-12T01:42:33.903Z,7.43
2023-05-12T01:45:01.156Z,7.00
2023-05-12T01:47:28.080Z,7.50
2023-05-12T01:49:55.010Z,8.50
2023-05-12T01:52:21.992Z,7.68
2023-05-12T01:54:49.186Z,7.65
2023-05-12T01:57:16.200Z,7.15
2023-05-12T01:59:43.205Z,7.30
2023-05-12T02:02:10.240Z,7.80
2023-05-12T02:04:37.696Z,7.88
2023-05-12T02:07:04.775Z,9.20
2023-05-12T02:09:31.724Z,8.38
2023-05-12T02:11:58.660Z,8.93
2023-05-12T02:14:25.669Z,7.60
2023-05-12T02:16:53.036Z,9.13
2023-05-12T02:19:21.089Z,7.43
2023-05-12T02:21:48.535Z,7.47
2023-05-12T02:24:16.798Z,8.30
2023-05-12T02:26:43.964Z,8.00
2023-05-12T02:29:12.005Z,7.88
2023-05-12T02:31:39.174Z,7.55
2023-05-12T02:34:06.927Z,8.25
2023-05-12T02:36:33.953Z,7.80
2023-05-12T02:39:00.893Z,8.05
2023-05-12T02:41:27.886Z,7.43
2023-05-12T02:43:55.116Z,7.97
2023-05-12T02:46:22.214Z,8.35
2023-05-12T02:48:49.154Z,8.60
2023-05-12T02:51:16.182Z,8.35
2023-05-12T02:53:43.121Z,8.45
2023-05-12T02:56:10.089Z,9.18
2023-05-12T02:58:37.818Z,8.52
2023-05-12T03:01:10.624Z,7.45
2023-05-12T03:03:38.827Z,6.45
2023-05-12T03:06:06.596Z,6.72
2023-05-12T03:08:33.651Z,7.28
2023-05-12T03:11:00.684Z,7.00
2023-05-12T03:13:27.640Z,8.15
2023-05-12T03:15:54.609Z,7.45
2023-05-12T03:18:21.582Z,7.68
2023-05-12T03:20:48.683Z,6.80
2023-05-12T03:23:15.599Z,7.60
2023-05-12T03:25:42.601Z,6.85
2023-05-12T03:28:09.713Z,7.30
2023-05-12T03:30:36.727Z,7.47
2023-05-12T03:33:03.862Z,9.82
2023-05-12T03:35:31.208Z,9.52
2023-05-12T03:37:58.124Z,7.10
2023-05-12T03:40:25.058Z,8.18
2023-05-12T03:42:52.080Z,7.90
2023-05-12T03:45:19.179Z,7.72
2023-05-12T03:47:46.225Z,7.38
2023-05-12T03:50:13.262Z,6.88
2023-05-12T03:52:41.576Z,6.68
2023-05-12T03:55:09.353Z,7.68
2023-05-12T03:57:36.825Z,6.60
2023-05-12T04:00:05.560Z,6.97
2023-05-12T04:02:32.703Z,6.80
2023-05-12T04:04:59.888Z,6.70
2023-05-12T04:07:27.286Z,7.13
2023-05-12T04:09:54.232Z,7.70
2023-05-12T04:12:21.149Z,6.88
2023-05-12T04:14:48.501Z,7.63
2023-05-12T04:17:15.534Z,6.78
2023-05-12T04:19:42.882Z,7.80
2023-05-12T04:22:09.883Z,7.00
2023-05-12T04:24:38.877Z,7.90
2023-05-12T04:27:07.810Z,7.90
2023-05-12T04:29:36.365Z,7.25
2023-05-12T04:32:04.099Z,7.32
2023-05-12T04:34:31.238Z,7.82
2023-05-12T04:36:58.178Z,7.43
2023-05-12T04:39:25.139Z,7.85
2023-05-12T04:41:52.081Z,8.10
2023-05-12T04:44:19.082Z,8.43
2023-05-12T04:46:46.012Z,8.32
2023-05-12T04:49:12.962Z,7.57
2023-05-12T04:51:42.428Z,7.88
2023-05-12T04:54:12.458Z,7.57
2023-05-12T04:56:39.500Z,8.60
2023-05-12T04:59:06.695Z,10.27
2023-05-12T05:01:33.785Z,8.70
2023-05-12T05:04:00.856Z,8.35
2023-05-12T05:06:28.390Z,8.27
2023-05-12T05:08:56.120Z,7.32
2023-05-12T05:11:23.706Z,7.90
2023-05-12T05:13:50.937Z,7.68
2023-05-12T05:16:17.957Z,7.95
2023-05-12T05:18:47.884Z,6.90
2023-05-12T05:21:15.243Z,7.17
2023-05-12T05:23:42.686Z,7.72
2023-05-12T05:26:10.005Z,7.20
2023-05-12T05:28:39.875Z,7.10
2023-05-12T05:31:07.075Z,6.40
2023-05-12T05:33:34.187Z,6.85
2023-05-12T05:36:01.271Z,5.97
2023-05-12T05:38:28.339Z,5.78
2023-05-12T05:40:55.347Z,5.70
2023-05-12T05:43:22.377Z,6.03
2023-05-12T05:45:50.144Z,6.40
2023-05-12T05:48:17.728Z,5.57
2023-05-12T05:50:45.033Z,5.10
2023-05-12T05:53:12.088Z,5.03
2023-05-12T05:55:39.116Z,5.20
2023-05-12T05:58:06.108Z,5.15
2023-05-12T06:00:33.312Z,5.60
2023-05-12T06:03:00.443Z,5.03
2023-05-12T06:05:27.687Z,4.70
2023-05-12T06:07:54.737Z,5.07
2023-05-12T06:10:22.044Z,5.18
2023-05-12T06:12:50.372Z,5.40
2023-05-12T06:15:17.978Z,5.50
2023-05-12T06:17:45.423Z,6.07
2023-05-12T06:20:13.574Z,5.43
2023-05-12T06:22:42.455Z,5.38
2023-05-12T06:25:09.622Z,5.30
2023-05-12T06:27:36.844Z,4.55
2023-05-12T06:30:04.466Z,4.75
2023-05-12T06:32:31.681Z,3.70
2023-05-12T06:34:59.060Z,4.07
2023-05-12T06:37:25.986Z,4.45
2023-05-12T06:39:52.947Z,3.88
2023-05-12T06:42:19.911Z,4.18
2023-05-12T06:44:46.927Z,4.05
2023-05-12T06:47:13.882Z,4.00
2023-05-12T06:49:42.179Z,4.53
2023-05-12T06:52:09.223Z,4.45
2023-05-12T06:54:36.152Z,4.03
2023-05-12T06:57:03.121Z,4.43
2023-05-12T06:59:30.938Z,4.50
2023-05-12T07:01:58.002Z,6.05
2023-05-12T07:04:26.906Z,3.92
2023-05-12T07:06:53.976Z,3.63
2023-05-12T07:09:20.946Z,3.28
2023-05-12T07:11:48.209Z,3.30
2023-05-12T07:14:15.627Z,3.35
2023-05-12T07:16:42.548Z,3.13
2023-05-12T07:19:09.778Z,2.92
2023-05-12T07:21:37.303Z,2.78
2023-05-12T07:24:06.235Z,3.13
2023-05-12T07:26:33.444Z,2.90
2023-05-12T07:29:01.036Z,1.95
2023-05-12T07:31:28.793Z,2.80
2023-05-12T07:33:56.159Z,3.00
2023-05-12T07:36:23.406Z,3.40
2023-05-12T07:38:50.405Z,2.85
2023-05-12T07:41:23.225Z,3.17
2023-05-12T07:43:50.199Z,2.80
2023-05-12T07:46:17.179Z,2.97
2023-05-12T07:48:44.220Z,2.85
2023-05-12T07:51:11.196Z,2.88
2023-05-12T07:53:38.186Z,2.60
2023-05-12T07:56:07.279Z,3.13
2023-05-12T07:58:34.214Z,2.67
2023-05-12T08:01:05.946Z,2.53
2023-05-12T08:03:33.808Z,2.33
2023-05-12T08:06:00.885Z,2.70
2023-05-12T08:08:27.952Z,2.85
2023-05-12T08:10:54.908Z,2.65
2023-05-12T08:13:22.298Z,2.47
2023-05-12T08:15:52.174Z,2.60
2023-05-12T08:18:19.194Z,3.00
2023-05-12T08:20:46.231Z,2.75
2023-05-12T08:23:13.260Z,2.78
2023-05-12T08:25:41.336Z,2.65
2023-05-12T08:28:08.313Z,2.80
2023-05-12T08:30:35.292Z,2.88
2023-05-12T08:33:03.572Z,2.60
2023-05-12T08:35:30.810Z,2.83
2023-05-12T08:37:59.662Z,2.50
2023-05-12T08:40:29.828Z,2.60
2023-05-12T08:43:26.835Z,2.47
2023-05-12T08:45:57.732Z,2.70
2023-05-12T08:48:29.384Z,2.53
2023-05-12T08:50:58.048Z,3.10
2023-05-12T08:53:27.993Z,2.65
2023-05-12T08:57:09.429Z,2.67
2023-05-12T08:58:45.767Z,2.63
2023-05-12T09:01:14.997Z,2.67
2023-05-12T09:03:42.302Z,2.50
2023-05-12T09:06:10.910Z,2.90
2023-05-12T09:08:39.300Z,2.67
2023-05-12T09:11:06.888Z,2.60
2023-05-12T09:13:48.555Z,2.75
2023-05-12T09:16:23.150Z,2.75
2023-05-12T09:18:58.164Z,2.75
2023-05-12T09:21:26.657Z,2.85
2023-05-12T09:23:54.567Z,2.60
2023-05-12T09:26:25.274Z,2.65
2023-05-12T09:31:24.877Z,2.50
2023-05-12T09:33:52.570Z,2.97
2023-05-12T09:36:24.296Z,3.38
2023-05-12T09:39:05.420Z,2.75
2023-05-12T09:41:36.572Z,2.80
2023-05-12T09:44:04.198Z,2.75
2023-05-12T09:46:31.265Z,4.05
2023-05-12T09:48:59.110Z,2.95
2023-05-12T09:51:30.829Z,2.88
2023-05-12T09:53:58.484Z,3.30
2023-05-12T09:56:29.379Z,2.65
2023-05-12T09:58:57.642Z,3.00
2023-05-12T10:01:25.821Z,2.95
2023-05-12T10:03:55.048Z,3.25
2023-05-12T10:06:34.166Z,3.35
2023-05-12T10:09:42.202Z,3.30
2023-05-12T10:12:09.582Z,3.33
2023-05-12T10:14:37.642Z,3.00
2023-05-12T10:17:06.974Z,6.07
2023-05-12T10:19:36.101Z,3.10
2023-05-12T10:22:04.129Z,3.45
2023-05-12T10:24:31.294Z,2.30
2023-05-12T10:26:59.715Z,12.07
2023-05-12T10:29:30.058Z,2.92
2023-05-12T10:31:58.099Z,2.10
2023-05-12T10:34:34.032Z,2.78
2023-05-12T10:37:03.688Z,2.58
2023-05-12T10:39:33.446Z,3.30
2023-05-12T10:42:08.622Z,2.70
2023-05-12T10:44:36.651Z,3.40
2023-05-12T10:47:14.357Z,2.55
2023-05-12T10:49:43.290Z,2.88
2023-05-12T10:52:13.888Z,3.92
2023-05-12T10:54:44.880Z,2.25
2023-05-12T10:57:17.616Z,2.55
2023-05-12T10:59:53.437Z,2.38
2023-05-12T11:02:27.487Z,2.60
2023-05-12T11:05:05.310Z,2.42
2023-05-12T11:07:35.385Z,2.83
2023-05-12T11:10:05.898Z,2.88
2023-05-12T11:12:36.576Z,3.25
2023-05-12T11:15:05.308Z,2.67
2023-05-12T11:17:32.603Z,2.47
2023-05-12T11:20:01.323Z,2.60
2023-05-12T11:22:28.869Z,3.03
2023-05-12T11:24:55.956Z,3.40
2023-05-12T11:27:24.085Z,3.50
2023-05-12T11:29:59.407Z,2.45
2023-05-12T11:32:26.808Z,3.30
2023-05-12T11:34:53.930Z,2.90
2023-05-12T11:37:21.517Z,2.90
2023-05-12T11:39:48.823Z,3.08
2023-05-12T11:42:18.606Z,2.90
2023-05-12T11:44:50.615Z,2.75
2023-05-12T11:47:19.693Z,2.72
2023-05-12T11:49:52.224Z,3.33
2023-05-12T11:52:22.287Z,2.60
2023-05-12T11:54:56.972Z,3.13
2023-05-12T11:57:27.302Z,2.63
2023-05-12T11:59:59.153Z,2.75
2023-05-12T12:02:26.444Z,2.58
2023-05-12T12:04:53.748Z,3.00
2023-05-12T12:07:33.788Z,2.67
2023-05-12T12:10:13.129Z,2.67
2023-05-12T12:12:43.683Z,2.67
2023-05-12T12:15:11.658Z,2.90
2023-05-12T12:17:40.072Z,3.03
2023-05-12T12:20:08.458Z,2.50
2023-05-12T12:22:35.538Z,3.00
2023-05-12T12:25:03.218Z,2.72
2023-05-12T12:27:30.343Z,3.25
2023-05-12T12:29:57.419Z,2.85
2023-05-12T12:32:24.727Z,3.13
2023-05-12T12:34:52.069Z,4.13
2023-05-12T12:37:19.058Z,3.22
2023-05-12T12:39:47.875Z,3.00
2023-05-12T12:42:15.732Z,2.88
2023-05-12T12:44:42.978Z,2.92
2023-05-12T12:47:10.176Z,3.38
2023-05-12T12:49:40.419Z,2.60
2023-05-12T12:52:18.324Z,2.97
2023-05-12T12:54:45.284Z,2.83
2023-05-12T12:57:12.247Z,2.70
2023-05-12T12:59:39.201Z,2.67
2023-05-12T13:02:06.203Z,2.47
2023-05-12T13:04:33.142Z,2.75
2023-05-12T13:07:00.129Z,2.80
2023-05-12T13:09:27.223Z,2.72
2023-05-12T13:11:54.496Z,3.10
2023-05-12T13:14:21.690Z,2.88
2023-05-12T13:16:48.882Z,2.63
2023-05-12T13:19:15.910Z,3.05
2023-05-12T13:21:42.850Z,2.78
2023-05-12T13:24:09.873Z,3.08
2023-05-12T13:26:37.250Z,2.45
2023-05-12T13:29:04.414Z,2.05
2023-05-12T13:31:31.425Z,2.80
2023-05-12T13:33:58.435Z,2.50
2023-05-12T13:36:26.952Z,2.58
2023-05-12T13:38:53.894Z,2.60
2023-05-12T13:41:20.846Z,2.67
2023-05-12T13:43:48.335Z,2.67
2023-05-12T13:46:15.275Z,2.72
2023-05-12T13:48:42.207Z,2.70
2023-05-12T13:51:09.249Z,2.40
2023-05-12T13:53:38.606Z,2.60
2023-05-12T13:56:06.064Z,2.45
2023-05-12T13:58:33.074Z,2.50
2023-05-12T14:01:00.308Z,2.60
2023-05-12T14:03:27.248Z,2.47
2023-05-12T14:05:54.179Z,2.53
2023-05-12T14:08:21.104Z,2.70
2023-05-12T14:10:48.067Z,2.50
2023-05-12T14:13:14.990Z,2.20
2023-05-12T14:15:49.148Z,2.20
2023-05-12T14:18:17.280Z,2.22
2023-05-12T14:20:45.308Z,2.08
2023-05-12T14:23:12.386Z,2.13
2023-05-12T14:25:39.864Z,2.10
2023-05-12T14:28:07.082Z,2.50
2023-05-12T14:30:37.476Z,2.28
2023-05-12T14:33:04.746Z,2.30
2023-05-12T14:35:32.137Z,2.30
2023-05-12T14:37:59.114Z,2.20
2023-05-12T14:40:27.381Z,2.35
2023-05-12T14:42:55.281Z,2.50
2023-05-12T14:45:22.679Z,2.63
2023-05-12T14:47:49.884Z,1.90
2023-05-12T14:50:18.521Z,1.95
2023-05-12T14:52:45.881Z,2.13
2023-05-12T14:55:13.736Z,2.30
2023-05-12T14:57:44.898Z,2.20
2023-05-12T15:00:13.887Z,2.13
2023-05-12T15:02:42.338Z,2.30
2023-05-12T15:05:10.470Z,2.00
2023-05-12T15:07:38.024Z,2.33
2023-05-12T15:10:06.237Z,2.40
2023-05-12T15:12:33.924Z,2.03
2023-05-12T15:15:08.625Z,2.25
2023-05-12T15:17:35.857Z,2.20
2023-05-12T15:20:03.798Z,2.10
2023-05-12T15:22:31.626Z,2.15
2023-05-12T15:24:59.200Z,2.70
2023-05-12T15:27:26.855Z,2.10
2023-05-12T15:29:54.116Z,2.20
2023-05-12T15:32:21.173Z,2.15
2023-05-12T15:34:48.108Z,2.03
2023-05-12T15:37:15.305Z,2.10
2023-05-12T15:39:42.718Z,2.45
2023-05-12T15:42:10.699Z,2.10
2023-05-12T15:44:39.348Z,2.30
2023-05-12T15:47:06.739Z,1.80
2023-05-12T15:49:33.713Z,1.83
2023-05-12T15:52:00.844Z,2.33
2023-05-12T15:54:28.277Z,2.17
2023-05-12T15:56:55.192Z,1.95
2023-05-12T15:59:22.168Z,1.98
2023-05-12T16:01:49.111Z,2.20
2023-05-12T16:04:16.120Z,1.85
2023-05-12T16:06:43.145Z,2.10
2023-05-12T16:09:11.229Z,1.85
2023-05-12T16:11:38.244Z,2.13
2023-05-12T16:14:05.629Z,2.03
2023-05-12T16:16:32.603Z,2.03
2023-05-12T16:18:59.680Z,2.38
2023-05-12T16:21:26.697Z,3.00
2023-05-12T16:23:53.720Z,2.05
2023-05-12T16:26:20.665Z,2.00
2023-05-12T16:28:47.681Z,2.60
2023-05-12T16:31:18.105Z,2.30
2023-05-12T16:33:45.222Z,3.50
2023-05-12T16:36:13.095Z,2.00
2023-05-12T16:38:40.026Z,2.80
2023-05-12T16:41:07.748Z,2.75
2023-05-12T16:43:34.806Z,2.45
2023-05-12T16:46:03.301Z,2.67
2023-05-12T16:48:33.575Z,2.95
2023-05-12T16:51:05.511Z,2.67
2023-05-12T16:53:32.896Z,3.05
2023-05-12T16:56:00.032Z,3.22
2023-05-12T16:58:32.634Z,2.17
2023-05-12T17:01:02.502Z,1.80
2023-05-12T17:03:29.868Z,2.10
2023-05-12T17:05:57.189Z,3.47
2023-05-12T17:08:25.026Z,2.65
2023-05-12T17:10:52.044Z,2.40
2023-05-12T17:13:19.091Z,3.20
2023-05-12T17:15:46.062Z,2.72
2023-05-12T17:18:13.170Z,2.80
2023-05-12T17:20:40.828Z,3.75
2023-05-12T17:23:08.408Z,2.30
2023-05-12T17:25:36.769Z,3.00
2023-05-12T17:28:04.710Z,2.95
2023-05-12T17:30:32.129Z,3.72
2023-05-12T17:32:59.353Z,3.67
2023-05-12T17:35:26.445Z,3.85
2023-05-12T17:37:55.444Z,3.20
2023-05-12T17:40:23.128Z,11.85
2023-05-12T17:42:50.422Z,18.60
2023-05-12T17:45:17.840Z,27.13
2023-05-12T17:47:45.691Z,26.17
2023-05-12T17:50:15.021Z,12.20
2023-05-12T17:52:43.536Z,9.95
2023-05-12T17:55:10.911Z,9.93
2023-05-12T17:57:38.231Z,9.18
2023-05-12T18:00:15.835Z,7.72
2023-05-12T18:02:42.960Z,6.30
2023-05-12T18:05:11.290Z,2.88
2023-05-12T18:07:38.308Z,2.80
2023-05-12T18:10:09.392Z,3.00
2023-05-12T18:12:37.026Z,3.47
2023-05-12T18:15:05.434Z,3.28
2023-05-12T18:17:32.775Z,2.80
2023-05-12T18:19:59.928Z,4.13
2023-05-12T18:22:26.873Z,4.03
2023-05-12T18:24:53.876Z,4.95
2023-05-12T18:27:20.973Z,3.63
2023-05-12T18:29:47.953Z,3.90
2023-05-12T18:32:14.983Z,3.20
2023-05-12T18:34:45.573Z,3.20
2023-05-12T18:37:14.495Z,3.80
2023-05-12T18:39:44.951Z,3.97
2023-05-12T18:42:12.061Z,3.00
2023-05-12T18:44:41.325Z,3.10
2023-05-12T18:47:09.064Z,2.65
2023-05-12T18:49:36.762Z,2.83
2023-05-12T18:52:04.148Z,3.10
2023-05-12T18:54:31.268Z,5.20
2023-05-12T18:56:58.284Z,4.20
2023-05-12T18:59:25.313Z,5.05
2023-05-12T19:01:52.386Z,4.35
2023-05-12T19:04:19.846Z,5.10
2023-05-12T19:06:47.083Z,5.28
2023-05-12T19:09:14.354Z,3.90
2023-05-12T19:11:41.416Z,5.22
2023-05-12T19:14:08.807Z,5.55
2023-05-12T19:16:36.500Z,7.90
2023-05-12T19:19:03.559Z,5.75
2023-05-12T19:21:32.427Z,4.55
2023-05-12T19:23:59.529Z,4.45
2023-05-12T19:26:27.012Z,3.88
2023-05-12T19:28:54.050Z,4.35
2023-05-12T19:31:21.113Z,4.57
2023-05-12T19:33:48.074Z,3.88
2023-05-12T19:36:15.373Z,4.05
2023-05-12T19:38:44.304Z,4.10
2023-05-12T19:41:11.465Z,4.55
2023-05-12T19:43:38.513Z,5.00
2023-05-12T19:46:05.595Z,5.07
2023-05-12T19:48:32.670Z,3.50
2023-05-12T19:50:59.771Z,4.20
2023-05-12T19:53:26.937Z,4.10
2023-05-12T19:55:57.222Z,3.65
2023-05-12T19:58:24.267Z,3.85
2023-05-12T20:00:51.315Z,3.78
2023-05-12T20:03:19.261Z,4.32
2023-05-12T20:05:48.422Z,5.97
2023-05-12T20:08:15.801Z,4.45
2023-05-12T20:10:42.813Z,4.30
2023-05-12T20:13:09.807Z,4.15
2023-05-12T20:15:36.781Z,5.50
2023-05-12T20:18:03.979Z,3.75
2023-05-12T20:20:31.631Z,3.83
2023-05-12T20:22:58.728Z,6.05
2023-05-12T20:25:27.152Z,9.80
2023-05-12T20:27:55.815Z,10.63
2023-05-12T20:30:22.984Z,8.00
2023-05-12T20:32:51.189Z,4.95
2023-05-12T20:35:18.335Z,4.50
2023-05-12T20:37:45.393Z,3.58
2023-05-12T20:40:12.719Z,4.00
2023-05-12T20:42:39.880Z,3.45
2023-05-12T20:45:07.694Z,3.85
2023-05-12T20:47:35.712Z,3.60
2023-05-12T20:50:05.842Z,3.70
2023-05-12T20:52:42.340Z,4.38
2023-05-12T20:55:10.551Z,3.65
2023-05-12T20:57:38.025Z,3.97
2023-05-12T21:00:05.704Z,5.80
2023-05-12T21:02:32.835Z,5.38
2023-05-12T21:04:59.871Z,5.50
2023-05-12T21:07:26.948Z,5.88
2023-05-12T21:09:53.969Z,5.38
2023-05-12T21:12:21.094Z,5.43
2023-05-12T21:14:48.176Z,5.47
2023-05-12T21:17:16.790Z,5.72
2023-05-12T21:19:44.216Z,5.57
2023-05-12T21:22:11.608Z,5.10
2023-05-12T21:24:39.511Z,4.95
2023-05-12T21:27:07.342Z,4.95
2023-05-12T21:29:35.184Z,6.55
2023-05-12T21:32:02.440Z,5.07
2023-05-12T21:34:30.067Z,5.35
2023-05-12T21:36:57.072Z,5.40
2023-05-12T21:39:24.047Z,6.32
2023-05-12T21:41:51.034Z,5.68
2023-05-12T21:44:18.027Z,5.07
2023-05-12T21:46:45.131Z,4.95
2023-05-12T21:49:12.206Z,5.18
2023-05-12T21:51:39.282Z,4.90
2023-05-12T21:54:06.269Z,5.35
2023-05-12T21:56:33.426Z,5.30
2023-05-12T21:59:00.456Z,4.88
2023-05-12T22:01:27.492Z,5.18
2023-05-12T22:03:54.579Z,5.22
2023-05-12T22:06:21.591Z,4.53
2023-05-12T22:08:48.515Z,4.18
2023-05-12T22:11:15.739Z,4.35
2023-05-12T22:13:42.713Z,3.80
2023-05-12T22:16:09.669Z,4.55
2023-05-12T22:18:37.795Z,5.22
2023-05-12T22:21:04.778Z,6.65
2023-05-12T22:23:31.952Z,6.80
2023-05-12T22:28:39.258Z,5.75
2023-05-12T22:31:06.389Z,6.03
2023-05-12T22:33:34.649Z,6.13
2023-05-12T22:36:01.602Z,5.72
2023-05-12T22:38:28.594Z,5.40
2023-05-12T22:40:55.712Z,5.68
2023-05-12T22:43:22.840Z,5.10
2023-05-12T22:45:52.719Z,5.72
2023-05-12T22:48:20.055Z,6.15
2023-05-12T22:50:47.229Z,5.75
2023-05-12T22:53:14.723Z,5.45
2023-05-12T22:55:42.084Z,5.07
2023-05-12T22:58:10.381Z,5.50
2023-05-12T23:00:37.722Z,11.30
2023-05-12T23:03:04.754Z,10.88
2023-05-12T23:05:31.727Z,10.90
2023-05-12T23:07:58.676Z,22.35
2023-05-12T23:10:25.881Z,19.42
2023-05-12T23:12:52.849Z,19.17
2023-05-12T23:15:20.666Z,23.42
2023-05-12T23:17:47.762Z,24.30
2023-05-12T23:20:14.814Z,9.07
2023-05-12T23:22:41.760Z,8.98
2023-05-12T23:25:09.496Z,4.93
2023-05-12T23:27:37.338Z,7.20
2023-05-12T23:30:05.032Z,5.07
2023-05-12T23:32:32.363Z,4.68
2023-05-12T23:34:59.431Z,3.63
2023-05-12T23:37:26.811Z,4.07
2023-05-12T23:39:53.749Z,4.38
2023-05-12T23:42:20.657Z,4.65
2023-05-12T23:44:47.590Z,5.78
2023-05-12T23:47:14.496Z,5.60
2023-05-12T23:49:41.416Z,5.78
2023-05-12T23:52:08.499Z,5.28
2023-05-12T23:54:35.435Z,6.07
2023-05-12T23:57:03.159Z,4.68
2023-05-12T23:59:30.283Z,4.78
